createdAt,value
2023-11-18T00:01:58.762Z,2.03
2023-11-18T00:04:44.855Z,1.58
2023-11-18T00:07:30.793Z,2.00
2023-11-18T00:10:16.448Z,0.90
2023-11-18T00:13:03.499Z,1.52
2023-11-18T00:15:49.475Z,0.90
2023-11-18T00:18:35.541Z,1.75
2023-11-18T00:21:20.901Z,1.42
2023-11-18T00:24:07.016Z,2.28
2023-11-18T00:26:52.557Z,1.65
2023-11-18T00:29:38.897Z,1.45
2023-11-18T00:32:24.936Z,1.90
2023-11-18T00:35:11.579Z,1.25
2023-11-18T00:37:57.643Z,1.42
2023-11-18T00:40:43.291Z,0.93
2023-11-18T00:43:28.835Z,1.35
2023-11-18T00:46:14.311Z,1.67
2023-11-18T00:48:59.730Z,0.80
2023-11-18T00:51:45.084Z,0.77
2023-11-18T00:54:31.538Z,1.48
2023-11-18T00:57:18.213Z,1.02
2023-11-18T01:00:04.014Z,1.05
2023-11-18T01:02:51.089Z,0.98
2023-11-18T01:05:36.893Z,1.30
2023-11-18T01:08:22.393Z,1.23
2023-11-18T01:11:08.204Z,0.95
2023-11-18T01:13:57.129Z,1.15
2023-11-18T01:16:42.887Z,1.40
2023-11-18T01:19:29.552Z,0.95
2023-11-18T01:22:15.287Z,1.03
2023-11-18T01:25:02.155Z,1.02
2023-11-18T01:27:48.159Z,1.35
2023-11-18T01:30:33.934Z,0.93
2023-11-18T01:33:19.727Z,1.23
2023-11-18T01:36:06.025Z,1.42
2023-11-18T01:38:52.229Z,1.88
2023-11-18T01:41:37.801Z,1.35
2023-11-18T01:44:25.342Z,1.20
2023-11-18T01:47:15.108Z,1.92
2023-11-18T01:50:01.497Z,1.05
2023-11-18T01:52:48.802Z,1.27
2023-11-18T01:55:35.600Z,1.13
2023-11-18T01:58:24.215Z,1.70
2023-11-18T02:01:11.038Z,1.55
2023-11-18T02:03:56.922Z,2.08
2023-11-18T02:06:43.737Z,2.03
2023-11-18T02:09:30.248Z,1.38
2023-11-18T02:12:32.058Z,1.02
2023-11-18T02:15:19.115Z,0.88
2023-11-18T02:18:12.544Z,1.08
2023-11-18T02:20:59.257Z,2.05
2023-11-18T02:23:45.408Z,0.95
2023-11-18T02:26:31.323Z,1.42
2023-11-18T02:29:17.175Z,1.50
2023-11-18T02:32:28.569Z,1.25
2023-11-18T02:35:29.101Z,1.35
2023-11-18T02:38:15.961Z,1.15
2023-11-18T02:41:10.049Z,1.80
2023-11-18T02:43:56.477Z,0.52
2023-11-18T02:46:44.863Z,1.65
2023-11-18T02:49:31.148Z,0.90
2023-11-18T02:52:16.836Z,1.48
2023-11-18T02:55:02.357Z,1.20
2023-11-18T02:57:48.066Z,1.48
2023-11-18T03:00:33.936Z,1.45
2023-11-18T03:03:21.519Z,0.90
2023-11-18T03:06:07.316Z,1.08
2023-11-18T03:08:53.975Z,1.20
2023-11-18T03:11:39.664Z,1.33
2023-11-18T03:14:25.109Z,1.15
2023-11-18T03:17:11.042Z,1.05
2023-11-18T03:19:56.775Z,1.25
2023-11-18T03:22:42.430Z,0.88
2023-11-18T03:25:28.000Z,1.10
2023-11-18T03:28:13.437Z,1.40
2023-11-18T03:30:59.001Z,1.10
2023-11-18T03:33:44.362Z,0.95
2023-11-18T03:36:29.890Z,0.70
2023-11-18T03:39:15.408Z,1.15
2023-11-18T03:42:01.192Z,1.05
2023-11-18T03:44:49.512Z,1.60
2023-11-18T03:47:35.383Z,1.67
2023-11-18T03:50:21.177Z,0.93
2023-11-18T03:53:07.521Z,1.75
2023-11-18T03:55:53.143Z,1.50
2023-11-18T03:58:38.861Z,0.90
2023-11-18T04:01:28.074Z,0.88
2023-11-18T04:04:13.330Z,1.15
2023-11-18T04:06:58.767Z,0.73
2023-11-18T04:09:45.074Z,0.65
2023-11-18T04:12:31.696Z,1.25
2023-11-18T04:15:17.245Z,1.70
2023-11-18T04:18:02.922Z,0.95
2023-11-18T04:20:51.579Z,0.88
2023-11-18T04:23:43.032Z,1.40
2023-11-18T04:26:28.627Z,1.45
2023-11-18T04:29:14.156Z,1.10
2023-11-18T04:32:01.183Z,1.27
2023-11-18T04:34:46.976Z,1.60
2023-11-18T04:37:32.758Z,1.50
2023-11-18T04:40:18.584Z,0.63
2023-11-18T04:43:04.184Z,0.95
2023-11-18T04:45:49.617Z,1.35
2023-11-18T04:48:39.704Z,1.20
2023-11-18T04:51:27.216Z,1.30
2023-11-18T04:54:12.587Z,1.23
2023-11-18T04:56:59.143Z,0.85
2023-11-18T04:59:47.784Z,1.20
2023-11-18T05:02:34.869Z,1.90
2023-11-18T05:05:20.234Z,1.00
2023-11-18T05:08:07.936Z,0.98
2023-11-18T05:10:53.470Z,0.75
2023-11-18T05:13:41.271Z,1.25
2023-11-18T05:19:12.125Z,0.85
2023-11-18T05:21:57.639Z,0.80
2023-11-18T05:24:45.270Z,0.95
2023-11-18T05:27:32.438Z,1.25
2023-11-18T05:30:19.176Z,1.73
2023-11-18T05:33:06.859Z,2.37
2023-11-18T05:35:52.686Z,1.25
2023-11-18T05:38:38.584Z,0.90
2023-11-18T05:41:31.492Z,1.23
2023-11-18T05:44:20.935Z,1.45
2023-11-18T05:47:12.761Z,1.20
2023-11-18T05:49:58.428Z,1.80
2023-11-18T05:52:43.879Z,0.95
2023-11-18T05:55:29.794Z,2.22
2023-11-18T05:58:15.268Z,0.95
2023-11-18T06:01:01.120Z,1.15
2023-11-18T06:03:47.130Z,2.42
2023-11-18T06:06:33.262Z,1.63
2023-11-18T06:09:26.673Z,2.60
2023-11-18T06:12:12.320Z,1.83
2023-11-18T06:14:58.639Z,1.88
2023-11-18T06:17:45.849Z,0.95
2023-11-18T06:20:31.528Z,1.70
2023-11-18T06:23:19.734Z,1.63
2023-11-18T06:26:05.621Z,1.95
2023-11-18T06:28:51.529Z,1.90
2023-11-18T06:31:36.918Z,1.38
2023-11-18T06:34:22.274Z,1.45
2023-11-18T06:37:08.434Z,2.33
2023-11-18T06:39:54.116Z,2.13
2023-11-18T06:42:40.507Z,1.25
2023-11-18T06:45:25.895Z,2.00
2023-11-18T06:48:12.131Z,1.80
2023-11-18T06:50:57.829Z,1.42
2023-11-18T06:53:45.487Z,1.58
2023-11-18T06:56:31.509Z,3.25
2023-11-18T06:59:17.574Z,1.63
2023-11-18T07:02:05.477Z,1.88
2023-11-18T07:04:51.771Z,1.60
2023-11-18T07:07:38.768Z,1.50
2023-11-18T07:13:11.959Z,2.38
2023-11-18T07:18:44.624Z,1.05
2023-11-18T07:21:30.620Z,1.35
2023-11-18T07:24:18.295Z,2.00
2023-11-18T07:29:50.053Z,2.50
2023-11-18T07:32:35.521Z,1.92
2023-11-18T07:35:21.010Z,1.85
2023-11-18T07:38:08.403Z,1.65
2023-11-18T07:43:45.620Z,1.75
2023-11-18T07:46:32.830Z,2.80
2023-11-18T07:52:04.568Z,2.78
2023-11-18T07:54:53.014Z,2.30
2023-11-18T07:57:38.982Z,3.30
2023-11-18T08:00:25.137Z,1.58
2023-11-18T08:03:15.244Z,2.17
2023-11-18T08:06:00.924Z,4.10
2023-11-18T08:08:46.927Z,1.85
2023-11-18T08:11:32.373Z,3.00
2023-11-18T08:14:18.404Z,1.35
2023-11-18T08:17:05.704Z,2.03
2023-11-18T08:19:51.250Z,3.08
2023-11-18T08:22:36.905Z,1.90
2023-11-18T08:25:23.084Z,2.85
2023-11-18T08:28:09.548Z,2.37
2023-11-18T08:30:55.823Z,1.77
2023-11-18T08:33:41.112Z,2.17
2023-11-18T08:36:28.640Z,1.75
2023-11-18T08:42:03.644Z,4.68
2023-11-18T08:44:49.354Z,6.15
2023-11-18T08:47:35.118Z,3.92
2023-11-18T08:50:24.930Z,4.93
2023-11-18T08:53:11.654Z,8.23
2023-11-18T08:55:57.657Z,2.70
2023-11-18T08:58:46.508Z,3.63
2023-11-18T09:01:32.893Z,4.57
2023-11-18T09:04:21.249Z,4.15
2023-11-18T09:07:08.184Z,2.60
2023-11-18T09:09:54.086Z,2.47
2023-11-18T09:12:42.547Z,2.92
2023-11-18T09:15:29.813Z,2.90
2023-11-18T09:18:15.486Z,1.58
2023-11-18T09:21:02.591Z,2.75
2023-11-18T09:23:51.292Z,2.75
2023-11-18T09:26:36.964Z,2.03
2023-11-18T09:29:25.296Z,1.40
2023-11-18T09:32:14.090Z,1.20
2023-11-18T09:35:00.087Z,1.80
2023-11-18T09:37:46.030Z,1.77
2023-11-18T09:40:35.281Z,1.67
2023-11-18T09:43:23.170Z,1.95
2023-11-18T09:46:15.486Z,1.98
2023-11-18T09:49:27.059Z,2.70
2023-11-18T09:52:19.212Z,2.03
2023-11-18T09:55:16.313Z,2.30
2023-11-18T09:58:10.122Z,1.65
2023-11-18T10:01:00.167Z,8.85
2023-11-18T10:03:47.227Z,4.75
2023-11-18T10:06:35.811Z,3.20
2023-11-18T10:09:29.752Z,16.73
2023-11-18T10:12:17.951Z,12.27
2023-11-18T10:15:04.971Z,17.33
2023-11-18T10:18:07.845Z,10.88
2023-11-18T10:20:54.998Z,10.65
2023-11-18T10:23:59.469Z,8.07
2023-11-18T10:26:49.055Z,3.65
2023-11-18T10:29:35.086Z,4.82
2023-11-18T10:32:22.382Z,5.15
2023-11-18T10:35:11.326Z,3.95
2023-11-18T10:37:56.948Z,5.30
2023-11-18T10:40:42.833Z,2.20
2023-11-18T10:43:31.239Z,1.52
2023-11-18T10:46:18.116Z,1.80
2023-11-18T10:49:04.075Z,1.70
2023-11-18T10:51:53.012Z,2.03
2023-11-18T10:54:38.695Z,1.02
2023-11-18T10:57:25.810Z,1.55
2023-11-18T11:00:15.909Z,1.63
2023-11-18T11:03:05.559Z,1.83
2023-11-18T11:05:51.785Z,3.05
2023-11-18T11:11:26.900Z,1.25
2023-11-18T11:14:15.597Z,4.32
2023-11-18T11:17:12.326Z,2.33
2023-11-18T11:20:33.157Z,3.10
2023-11-18T11:23:21.244Z,2.53
2023-11-18T11:26:23.396Z,2.25
2023-11-18T11:29:24.927Z,1.92
2023-11-18T11:32:25.417Z,2.15
2023-11-18T11:35:22.429Z,1.80
2023-11-18T11:38:11.252Z,2.50
2023-11-18T11:41:01.554Z,0.93
2023-11-18T11:43:51.842Z,1.08
2023-11-18T11:46:38.511Z,1.38
2023-11-18T11:49:28.914Z,1.38
2023-11-18T11:52:31.178Z,0.85
2023-11-18T11:55:37.678Z,0.60
2023-11-18T11:58:32.367Z,1.00
2023-11-18T12:01:36.586Z,0.68
2023-11-18T12:04:29.451Z,0.63
2023-11-18T14:14:42.977Z,1.73
2023-11-18T14:17:29.532Z,1.67
2023-11-18T14:20:15.189Z,1.17
2023-11-18T14:23:00.984Z,1.50
2023-11-18T14:25:49.102Z,3.65
2023-11-18T14:28:36.164Z,1.75
2023-11-18T14:31:23.616Z,2.38
2023-11-18T14:34:11.234Z,1.45
2023-11-18T14:36:57.508Z,1.15
2023-11-18T14:39:43.887Z,1.67
2023-11-18T14:42:29.390Z,1.60
2023-11-18T14:45:16.287Z,1.15
2023-11-18T14:48:02.254Z,2.83
2023-11-18T14:50:47.934Z,3.33
2023-11-18T14:53:35.192Z,7.93
2023-11-18T14:56:20.835Z,3.47
2023-11-18T14:59:07.151Z,2.60
2023-11-18T15:01:58.284Z,1.80
2023-11-18T15:04:44.421Z,3.10
2023-11-18T15:07:29.798Z,2.22
2023-11-18T15:10:22.631Z,1.70
2023-11-18T15:13:19.216Z,2.05
2023-11-18T15:16:05.282Z,1.77
2023-11-18T15:18:53.716Z,1.67
2023-11-18T15:21:39.545Z,1.75
2023-11-18T15:24:25.349Z,1.90
2023-11-18T15:27:12.641Z,2.60
2023-11-18T15:29:58.755Z,2.22
2023-11-18T15:32:46.736Z,1.80
2023-11-18T15:35:32.248Z,2.40
2023-11-18T15:38:23.817Z,1.73
2023-11-18T15:41:12.537Z,3.13
2023-11-18T15:43:58.187Z,14.10
2023-11-18T15:46:49.055Z,5.55
2023-11-18T15:49:34.684Z,8.05
2023-11-18T15:52:20.113Z,3.53
2023-11-18T15:55:11.069Z,3.08
2023-11-18T15:57:56.742Z,6.13
2023-11-18T16:00:42.471Z,11.35
2023-11-18T16:03:28.838Z,8.13
2023-11-18T16:06:14.952Z,1.80
2023-11-18T16:09:00.778Z,3.70
2023-11-18T16:11:46.356Z,17.40
2023-11-18T16:14:31.921Z,8.43
2023-11-18T16:17:17.978Z,9.90
2023-11-18T16:20:08.150Z,11.55
2023-11-18T16:22:56.152Z,11.20
2023-11-18T16:25:42.043Z,5.65
2023-11-18T16:28:28.511Z,8.30
2023-11-18T16:31:14.695Z,10.13
2023-11-18T16:34:00.215Z,5.95
2023-11-18T16:36:46.153Z,5.78
2023-11-18T16:39:32.577Z,6.82
2023-11-18T16:42:20.139Z,4.20
2023-11-18T16:47:52.300Z,3.10
2023-11-18T16:50:38.195Z,3.05
2023-11-18T16:53:23.649Z,2.88
2023-11-18T16:56:09.939Z,3.25
2023-11-18T16:58:55.618Z,2.67
2023-11-18T17:01:41.099Z,2.97
2023-11-18T17:04:26.629Z,2.47
2023-11-18T17:07:15.042Z,3.22
2023-11-18T17:10:00.566Z,4.50
2023-11-18T17:12:47.278Z,2.75
2023-11-18T17:15:32.879Z,4.18
2023-11-18T17:18:18.662Z,3.75
2023-11-18T17:21:04.871Z,5.03
2023-11-18T17:23:51.706Z,5.40
2023-11-18T17:26:40.168Z,2.92
2023-11-18T17:29:27.088Z,2.80
2023-11-18T17:32:12.383Z,3.38
2023-11-18T17:34:58.292Z,11.60
2023-11-18T17:37:45.265Z,6.65
2023-11-18T17:40:30.828Z,8.25
2023-11-18T17:43:16.170Z,7.78
2023-11-18T17:46:01.726Z,18.30
2023-11-18T17:48:47.049Z,11.27
2023-11-18T17:51:34.193Z,13.85
2023-11-18T17:57:05.959Z,3.17
2023-11-18T17:59:54.637Z,3.08
2023-11-18T18:02:42.020Z,2.70
2023-11-18T18:08:15.590Z,3.95
2023-11-18T18:11:01.244Z,3.97
2023-11-18T18:13:46.854Z,5.00
2023-11-18T18:16:32.522Z,5.75
2023-11-18T18:19:19.304Z,8.20
2023-11-18T18:22:05.141Z,5.53
2023-11-18T18:24:51.253Z,7.03
2023-11-18T18:27:37.128Z,9.18
2023-11-18T18:30:22.951Z,3.65
2023-11-18T18:33:10.020Z,6.13
2023-11-18T18:35:55.405Z,3.25
2023-11-18T18:38:41.285Z,4.97
2023-11-18T18:41:26.935Z,4.15
2023-11-18T18:44:12.356Z,5.35
2023-11-18T18:46:59.035Z,4.25
2023-11-18T18:49:44.334Z,4.85
2023-11-18T18:52:29.841Z,8.05
2023-11-18T18:55:15.912Z,6.93
2023-11-18T18:58:01.277Z,2.95
2023-11-18T19:00:46.669Z,4.07
2023-11-18T19:03:33.251Z,6.38
2023-11-18T20:07:34.596Z,16.90
2023-11-18T20:10:20.668Z,29.00
2023-11-18T20:13:06.925Z,27.42
2023-11-18T20:15:55.089Z,32.25
2023-11-18T20:18:40.711Z,24.05
2023-11-18T20:21:26.313Z,11.73
2023-11-18T20:24:11.983Z,10.43
2023-11-18T20:26:57.402Z,8.73
2023-11-18T20:29:43.171Z,8.70
2023-11-18T20:32:29.683Z,9.15
2023-11-18T20:35:15.345Z,10.00
2023-11-18T20:38:03.085Z,8.25
2023-11-18T20:40:49.266Z,7.30
2023-11-18T20:43:34.935Z,8.57
2023-11-18T20:46:20.531Z,7.40
2023-11-18T20:49:06.625Z,9.00
2023-11-18T20:51:54.254Z,12.73
2023-11-18T20:54:40.159Z,9.18
2023-11-18T20:57:25.564Z,8.60
2023-11-18T21:00:12.658Z,8.00
2023-11-18T21:02:58.574Z,12.35
2023-11-18T21:05:44.619Z,16.02
2023-11-18T21:08:30.616Z,13.80
2023-11-18T21:11:15.918Z,14.82
2023-11-18T21:14:01.687Z,16.40
2023-11-18T21:16:47.485Z,11.18
2023-11-18T21:19:33.260Z,13.07
2023-11-18T21:22:19.234Z,11.20
2023-11-18T21:25:06.327Z,7.10
2023-11-18T21:27:52.821Z,11.30
2023-11-18T21:30:38.331Z,8.63
2023-11-18T21:33:24.169Z,9.02
2023-11-18T21:36:10.130Z,9.20
2023-11-18T21:38:56.161Z,9.93
2023-11-18T21:41:41.970Z,8.27
2023-11-18T21:44:27.832Z,7.53
2023-11-18T21:47:13.694Z,8.63
2023-11-18T21:50:02.897Z,7.85
2023-11-18T21:52:48.646Z,8.20
2023-11-18T21:55:34.518Z,8.75
2023-11-18T21:58:20.111Z,7.70
2023-11-18T22:01:06.994Z,7.18
2023-11-18T22:03:53.845Z,6.20
2023-11-18T22:06:39.326Z,6.93
2023-11-18T22:09:25.246Z,7.22
2023-11-18T22:12:10.775Z,10.18
2023-11-18T22:14:56.167Z,9.05
2023-11-18T22:17:44.415Z,8.85
2023-11-18T22:20:31.299Z,10.82
2023-11-18T22:23:17.496Z,10.18
2023-11-18T22:26:03.098Z,9.38
2023-11-18T22:28:48.764Z,12.75
2023-11-18T22:31:34.553Z,13.35
2023-11-18T22:34:20.341Z,10.77
2023-11-18T22:37:07.214Z,14.52
2023-11-18T22:39:55.472Z,10.75
2023-11-18T22:42:44.153Z,10.95
2023-11-18T22:45:29.749Z,5.75
2023-11-18T22:48:15.331Z,8.32
2023-11-18T22:51:00.741Z,8.38
2023-11-18T22:53:46.384Z,8.73
2023-11-18T22:56:32.304Z,10.48
2023-11-18T22:59:20.977Z,9.98
2023-11-18T23:02:06.972Z,9.95
2023-11-18T23:04:52.442Z,11.15
2023-11-18T23:07:37.983Z,9.80
2023-11-18T23:10:27.195Z,12.52
2023-11-18T23:13:14.585Z,10.52
2023-11-18T23:16:02.032Z,9.80
2023-11-18T23:18:47.873Z,10.23
2023-11-18T23:21:34.565Z,9.20
2023-11-18T23:24:21.606Z,8.48
2023-11-18T23:27:08.349Z,10.68
2023-11-18T23:29:53.731Z,6.60
2023-11-18T23:32:41.128Z,7.53
2023-11-18T23:35:26.690Z,8.80
2023-11-18T23:38:12.548Z,10.60
2023-11-18T23:40:58.050Z,9.07
2023-11-18T23:43:43.693Z,10.13
2023-11-18T23:46:30.218Z,8.68
2023-11-18T23:49:16.242Z,10.25
2023-11-18T23:52:02.172Z,9.13
2023-11-18T23:54:49.204Z,10.23
2023-11-18T23:57:35.975Z,12.95
